createdAt,value
2019-06-27T00:02:07.181Z,14.93
2019-06-27T00:07:13.431Z,16.52
2019-06-27T00:12:19.420Z,16.12
2019-06-27T00:17:24.844Z,12.10
2019-06-27T00:22:31.143Z,14.18
2019-06-27T00:27:36.980Z,14.38
2019-06-27T00:32:43.891Z,17.07
2019-06-27T00:37:49.431Z,13.43
2019-06-27T00:42:56.596Z,16.00
2019-06-27T00:48:02.904Z,18.42
2019-06-27T00:53:08.396Z,15.98
2019-06-27T00:58:14.420Z,17.55
2019-06-27T01:03:21.419Z,18.40
2019-06-27T01:08:28.926Z,14.23
2019-06-27T01:13:34.385Z,13.22
2019-06-27T01:18:39.961Z,16.80
2019-06-27T01:23:45.794Z,12.98
2019-06-27T01:28:51.937Z,18.10
2019-06-27T01:33:57.807Z,13.18
2019-06-27T01:39:03.593Z,16.42
2019-06-27T01:44:28.064Z,16.57
2019-06-27T01:49:33.558Z,15.85
2019-06-27T01:54:40.196Z,12.90
2019-06-27T01:59:45.943Z,13.58
2019-06-27T02:04:51.617Z,9.98
2019-06-27T02:09:58.459Z,13.22
2019-06-27T02:15:03.901Z,11.38
2019-06-27T02:20:10.181Z,17.60
2019-06-27T02:25:17.086Z,15.72
2019-06-27T02:30:33.528Z,12.43
2019-06-27T02:35:39.461Z,14.35
2019-06-27T02:40:45.039Z,17.62
2019-06-27T02:45:50.623Z,13.45
2019-06-27T02:50:57.003Z,12.75
2019-06-27T02:56:02.229Z,13.05
2019-06-27T03:01:07.961Z,12.58
2019-06-27T03:06:13.778Z,19.32
2019-06-27T03:11:19.397Z,13.75
2019-06-27T03:16:24.829Z,12.95
2019-06-27T03:21:30.402Z,17.67
2019-06-27T03:26:36.383Z,17.15
2019-06-27T03:31:42.611Z,15.65
2019-06-27T03:36:48.565Z,13.75
2019-06-27T03:41:54.086Z,14.68
2019-06-27T03:46:59.738Z,13.25
2019-06-27T03:52:07.447Z,15.90
2019-06-27T03:57:12.964Z,17.62
2019-06-27T04:02:18.713Z,17.30
2019-06-27T04:07:24.365Z,20.57
2019-06-27T04:12:29.858Z,17.95
2019-06-27T04:17:35.775Z,18.87
2019-06-27T04:22:41.227Z,16.87
2019-06-27T04:27:46.727Z,19.23
2019-06-27T04:32:52.722Z,14.55
2019-06-27T04:37:58.338Z,19.52
2019-06-27T04:43:05.789Z,14.80
2019-06-27T04:48:11.550Z,17.75
2019-06-27T04:53:17.738Z,15.32
2019-06-27T04:58:23.952Z,15.75
2019-06-27T05:03:30.040Z,14.13
2019-06-27T05:08:36.070Z,16.55
2019-06-27T05:13:42.077Z,19.90
2019-06-27T05:18:47.793Z,18.87
2019-06-27T05:23:53.983Z,15.32
2019-06-27T05:29:00.885Z,18.65
2019-06-27T05:34:07.323Z,19.32
2019-06-27T05:39:12.951Z,16.40
2019-06-27T05:44:18.480Z,16.20
2019-06-27T05:49:24.568Z,15.80
2019-06-27T05:54:30.132Z,22.70
2019-06-27T05:59:35.724Z,23.10
2019-06-27T06:04:41.918Z,15.32
2019-06-27T06:09:48.271Z,20.02
2019-06-27T06:14:54.409Z,19.77
2019-06-27T06:20:00.072Z,18.20
2019-06-27T06:25:06.155Z,15.18
2019-06-27T06:30:13.541Z,17.57
2019-06-27T06:35:19.423Z,16.65
2019-06-27T06:40:24.927Z,20.32
2019-06-27T06:45:30.727Z,17.35
2019-06-27T06:50:36.476Z,19.65
2019-06-27T06:55:42.854Z,22.07
2019-06-27T07:01:00.887Z,17.82
2019-06-27T07:05:56.317Z,18.15
2019-06-27T07:11:01.881Z,18.05
2019-06-27T07:16:07.272Z,21.93
2019-06-27T07:21:12.802Z,18.85
2019-06-27T07:26:21.918Z,14.23
2019-06-27T07:31:25.561Z,22.65
2019-06-27T07:36:31.434Z,18.75
2019-06-27T07:41:36.731Z,17.12
2019-06-27T07:46:42.220Z,14.70
2019-06-27T07:51:47.763Z,18.42
2019-06-27T07:56:53.635Z,18.48
2019-06-27T08:01:59.458Z,16.75
2019-06-27T08:07:05.347Z,16.10
2019-06-27T08:12:10.863Z,15.03
2019-06-27T08:17:17.807Z,14.93
2019-06-27T08:22:23.459Z,15.55
2019-06-27T08:27:28.851Z,14.87
2019-06-27T08:32:34.688Z,16.52
2019-06-27T08:37:40.319Z,16.50
2019-06-27T08:42:45.652Z,19.70
2019-06-27T08:47:51.998Z,18.23
2019-06-27T08:53:01.027Z,15.32
2019-06-27T08:58:07.438Z,17.45
2019-06-27T09:03:12.988Z,21.15
2019-06-27T09:08:20.226Z,16.70
2019-06-27T09:13:26.310Z,17.05
2019-06-27T09:18:32.048Z,14.83
2019-06-27T09:23:37.911Z,13.93
2019-06-27T09:28:43.356Z,17.90
2019-06-27T09:33:48.873Z,14.63
2019-06-27T09:38:54.833Z,16.05
2019-06-27T09:44:00.386Z,17.62
2019-06-27T09:49:07.310Z,18.62
2019-06-27T09:54:12.659Z,16.90
2019-06-27T09:59:18.099Z,13.88
2019-06-27T10:04:23.528Z,14.30
2019-06-27T10:09:29.185Z,13.22
2019-06-27T10:14:34.712Z,19.45
2019-06-27T10:19:43.316Z,18.50
2019-06-27T10:24:49.130Z,18.20
2019-06-27T10:29:54.957Z,15.45
2019-06-27T10:35:00.746Z,15.05
2019-06-27T10:40:07.035Z,15.40
2019-06-27T10:45:12.993Z,16.27
2019-06-27T10:50:18.758Z,19.07
2019-06-27T10:55:24.323Z,13.15
2019-06-27T11:00:30.192Z,13.58
2019-06-27T11:05:35.664Z,12.58
2019-06-27T11:10:41.235Z,18.20
2019-06-27T11:15:49.370Z,17.62
2019-06-27T11:20:56.870Z,19.40
2019-06-27T11:26:02.971Z,15.25
2019-06-27T11:31:08.413Z,13.08
2019-06-27T11:36:14.706Z,14.75
2019-06-27T11:41:21.078Z,16.32
2019-06-27T11:46:26.734Z,13.38
2019-06-27T11:51:32.274Z,20.65
2019-06-27T11:56:37.891Z,17.85
2019-06-27T12:01:43.880Z,12.43
2019-06-27T12:06:49.208Z,15.55
2019-06-27T12:11:55.276Z,12.28
2019-06-27T12:17:00.651Z,13.72
2019-06-27T12:22:06.098Z,14.58
2019-06-27T12:27:12.185Z,11.75
2019-06-27T12:32:17.892Z,16.25
2019-06-27T12:37:23.325Z,13.28
2019-06-27T12:42:32.779Z,11.22
2019-06-27T12:47:36.323Z,13.05
2019-06-27T12:52:42.098Z,10.88
2019-06-27T12:57:47.607Z,10.70
2019-06-27T13:02:53.553Z,13.62
2019-06-27T13:07:59.591Z,12.88
2019-06-27T13:13:05.973Z,12.00
2019-06-27T13:18:11.841Z,12.20
2019-06-27T13:23:17.355Z,15.30
2019-06-27T13:28:23.092Z,14.07
2019-06-27T13:33:28.435Z,13.45
2019-06-27T13:38:34.042Z,13.00
2019-06-27T13:43:39.944Z,11.70
2019-06-27T13:48:45.270Z,12.03
2019-06-27T13:53:51.068Z,14.95
2019-06-27T13:58:58.946Z,13.85
2019-06-27T14:04:04.888Z,9.48
2019-06-27T14:09:22.220Z,13.25
2019-06-27T14:14:18.658Z,9.83
2019-06-27T14:19:24.284Z,14.30
2019-06-27T14:24:29.820Z,16.00
2019-06-27T14:29:37.164Z,13.05
2019-06-27T14:34:43.159Z,15.03
2019-06-27T14:39:48.609Z,14.45
2019-06-27T14:44:55.004Z,14.00
2019-06-27T14:50:03.431Z,15.58
2019-06-27T14:55:09.402Z,12.43
2019-06-27T15:00:15.042Z,14.65
2019-06-27T15:05:31.839Z,16.10
2019-06-27T15:10:30.223Z,15.38
2019-06-27T15:15:36.383Z,14.20
2019-06-27T15:20:41.786Z,14.98
2019-06-27T15:25:47.510Z,13.50
2019-06-27T15:30:52.881Z,17.40
2019-06-27T15:36:35.304Z,18.35
2019-06-27T15:41:38.707Z,13.90
2019-06-27T15:46:44.478Z,14.20
2019-06-27T15:51:50.286Z,17.32
2019-06-27T15:56:56.410Z,16.25
2019-06-27T16:02:02.044Z,16.52
2019-06-27T16:07:07.307Z,10.78
2019-06-27T16:12:12.663Z,13.98
2019-06-27T16:17:18.024Z,9.90
2019-06-27T16:22:23.415Z,11.05
2019-06-27T16:27:29.319Z,12.20
2019-06-27T16:32:34.867Z,14.80
2019-06-27T16:37:42.037Z,15.75
2019-06-27T16:42:47.316Z,22.85
2019-06-27T16:47:53.104Z,16.07
2019-06-27T16:52:58.902Z,15.85
2019-06-27T16:58:05.378Z,14.73
2019-06-27T17:03:10.898Z,18.30
2019-06-27T17:08:16.749Z,12.18
2019-06-27T17:13:22.936Z,15.03
2019-06-27T17:18:28.698Z,15.30
2019-06-27T17:23:34.386Z,13.80
2019-06-27T17:28:40.384Z,11.57
2019-06-27T17:33:48.019Z,13.48
2019-06-27T17:38:53.729Z,12.47
2019-06-27T17:43:59.245Z,12.75
2019-06-27T17:49:04.948Z,10.63
2019-06-27T17:54:10.915Z,17.95
2019-06-27T17:59:16.865Z,19.40
2019-06-27T18:04:23.337Z,14.13
2019-06-27T18:09:29.516Z,12.40
2019-06-27T18:14:35.059Z,11.85
2019-06-27T18:19:40.569Z,19.40
2019-06-27T18:24:46.110Z,14.87
2019-06-27T18:29:51.620Z,17.57
2019-06-27T18:34:57.038Z,14.87
2019-06-27T18:40:02.755Z,12.55
2019-06-27T18:45:08.546Z,13.03
2019-06-27T18:50:14.110Z,13.45
2019-06-27T18:55:19.357Z,14.53
2019-06-27T19:00:25.016Z,14.40
2019-06-27T19:05:31.401Z,18.23
2019-06-27T19:10:36.894Z,15.35
2019-06-27T19:15:42.344Z,17.27
2019-06-27T19:20:52.360Z,14.75
2019-06-27T19:26:00.094Z,12.85
2019-06-27T19:31:05.479Z,12.63
2019-06-27T19:36:11.086Z,12.55
2019-06-27T19:41:16.862Z,13.20
2019-06-27T19:46:22.166Z,9.63
2019-06-27T19:51:28.392Z,11.20
2019-06-27T19:56:34.172Z,11.97
2019-06-27T20:01:39.953Z,11.12
2019-06-27T20:06:47.002Z,8.95
2019-06-27T20:11:52.758Z,15.20
2019-06-27T20:16:59.165Z,13.68
2019-06-27T20:22:04.537Z,14.45
2019-06-27T20:27:10.249Z,12.20
2019-06-27T20:32:15.727Z,11.15
2019-06-27T20:37:21.185Z,12.30
2019-06-27T20:42:26.851Z,12.73
2019-06-27T20:47:32.566Z,11.15
2019-06-27T20:52:38.416Z,12.95
2019-06-27T20:57:44.443Z,10.98
2019-06-27T21:02:49.834Z,10.43
2019-06-27T21:07:55.802Z,11.80
2019-06-27T21:13:01.745Z,12.18
2019-06-27T21:18:07.320Z,12.75
2019-06-27T21:23:12.818Z,10.25
2019-06-27T21:28:18.626Z,11.25
2019-06-27T21:33:24.072Z,12.35
2019-06-27T21:38:29.857Z,11.00
2019-06-27T21:43:35.260Z,13.70
2019-06-27T21:48:42.196Z,13.98
2019-06-27T21:53:47.877Z,13.40
2019-06-27T21:58:54.421Z,9.63
2019-06-27T22:03:59.851Z,10.20
2019-06-27T22:09:23.044Z,14.53
2019-06-27T22:14:15.465Z,11.57
2019-06-27T22:19:21.659Z,9.63
2019-06-27T22:24:27.963Z,9.78
2019-06-27T22:29:33.744Z,8.18
2019-06-27T22:34:39.172Z,7.33
2019-06-27T22:40:02.701Z,10.50
2019-06-27T22:45:25.976Z,4.97
2019-06-27T22:50:56.348Z,5.12
2019-06-27T22:56:02.872Z,3.80
2019-06-27T23:01:08.829Z,3.87
2019-06-27T23:06:14.827Z,4.20
2019-06-27T23:23:30.194Z,2.65
2019-06-27T23:28:36.005Z,4.20
2019-06-27T23:33:41.625Z,3.42
2019-06-27T23:38:47.309Z,2.05
2019-06-27T23:43:53.061Z,3.83
2019-06-27T23:48:58.513Z,4.10
2019-06-27T23:54:04.573Z,2.40
2019-06-27T23:59:10.475Z,3.67
